createdAt,value
2023-04-15T00:01:12.132Z,9.70
2023-04-15T00:06:17.499Z,7.88
2023-04-15T00:11:24.501Z,9.20
2023-04-15T00:16:56.218Z,9.98
2023-04-15T00:22:01.537Z,8.77
2023-04-15T00:27:06.585Z,12.45
2023-04-15T00:32:09.438Z,8.82
2023-04-15T00:37:13.914Z,9.47
2023-04-15T00:42:16.829Z,13.73
2023-04-15T00:47:20.343Z,11.70
2023-04-15T00:52:24.644Z,12.45
2023-04-15T00:57:29.660Z,9.27
2023-04-15T01:02:33.817Z,11.00
2023-04-15T01:07:38.382Z,11.70
2023-04-15T01:12:41.406Z,10.93
2023-04-15T01:17:44.223Z,13.68
2023-04-15T01:22:49.107Z,12.43
2023-04-15T01:27:53.279Z,13.55
2023-04-15T01:32:56.134Z,14.07
2023-04-15T01:38:06.376Z,11.37
2023-04-15T01:43:12.772Z,11.60
2023-04-15T01:48:15.737Z,14.52
2023-04-15T01:53:18.918Z,13.63
2023-04-15T01:58:27.312Z,14.00
2023-04-15T02:03:48.356Z,17.60
2023-04-15T02:08:51.229Z,13.68
2023-04-15T02:13:55.305Z,14.77
2023-04-15T02:18:58.058Z,13.23
2023-04-15T02:24:00.941Z,15.30
2023-04-15T02:29:05.087Z,16.87
2023-04-15T02:34:08.852Z,16.83
2023-04-15T02:39:12.779Z,15.52
2023-04-15T02:44:18.935Z,14.32
2023-04-15T02:49:21.799Z,14.82
2023-04-15T02:54:28.752Z,13.23
2023-04-15T02:59:32.886Z,17.52
2023-04-15T03:04:36.547Z,20.17
2023-04-15T03:14:44.847Z,16.52
2023-04-15T03:19:47.555Z,18.00
2023-04-15T03:24:50.552Z,16.90
2023-04-15T03:29:54.812Z,16.02
2023-04-15T03:34:57.488Z,15.82
2023-04-15T03:40:00.234Z,20.33
2023-04-15T03:45:04.884Z,15.83
2023-04-15T03:50:10.144Z,16.73
2023-04-15T03:55:12.903Z,23.33
2023-04-15T04:00:17.101Z,25.07
2023-04-15T04:05:21.913Z,21.27
2023-04-15T04:10:24.758Z,23.27
2023-04-15T04:15:28.945Z,25.97
2023-04-15T04:20:32.666Z,22.10
2023-04-15T04:30:40.722Z,22.40
2023-04-15T04:35:43.404Z,23.75
2023-04-15T04:40:46.697Z,27.93
2023-04-15T04:45:52.173Z,29.98
2023-04-15T04:50:59.327Z,33.17
2023-04-15T04:56:02.405Z,27.05
2023-04-15T05:01:10.662Z,31.70
2023-04-15T05:06:13.662Z,31.05
2023-04-15T05:11:16.312Z,36.30
2023-04-15T05:16:25.923Z,29.15
2023-04-15T05:21:28.830Z,27.92
2023-04-15T05:26:33.844Z,27.63
2023-04-15T05:31:38.541Z,31.58
2023-04-15T05:36:41.799Z,25.35
2023-04-15T05:41:49.626Z,24.65
2023-04-15T05:47:00.808Z,24.73
2023-04-15T05:52:04.672Z,24.88
2023-04-15T05:57:10.784Z,24.05
2023-04-15T06:02:35.617Z,25.00
2023-04-15T06:07:41.997Z,21.10
2023-04-15T06:12:44.779Z,25.52
2023-04-15T06:17:51.646Z,24.23
2023-04-15T06:22:54.844Z,21.90
2023-04-15T06:27:57.529Z,21.27
2023-04-15T06:33:03.571Z,19.92
2023-04-15T06:38:06.402Z,19.40
2023-04-15T06:43:10.281Z,18.13
2023-04-15T06:48:14.526Z,13.40
2023-04-15T06:53:17.520Z,14.65
2023-04-15T06:58:21.813Z,14.50
2023-04-15T07:03:26.140Z,13.52
2023-04-15T07:08:31.189Z,11.52
2023-04-15T07:13:33.883Z,10.95
2023-04-15T07:18:39.276Z,10.45
2023-04-15T07:23:43.314Z,11.75
2023-04-15T07:28:47.532Z,10.85
2023-04-15T07:33:51.563Z,10.15
2023-04-15T07:38:55.321Z,11.50
2023-04-15T07:43:58.965Z,10.70
2023-04-15T07:49:03.206Z,10.65
2023-04-15T07:54:07.450Z,11.00
2023-04-15T07:59:11.664Z,11.18
2023-04-15T08:04:16.015Z,10.88
2023-04-15T08:09:21.429Z,10.85
2023-04-15T08:14:26.469Z,9.70
2023-04-15T08:19:31.430Z,11.43
2023-04-15T08:24:34.161Z,9.35
2023-04-15T08:29:37.061Z,10.30
2023-04-15T08:34:55.317Z,11.20
2023-04-15T08:39:59.538Z,9.75
2023-04-15T08:45:05.460Z,8.15
2023-04-15T08:50:12.173Z,9.45
2023-04-15T08:55:15.486Z,8.50
2023-04-15T09:00:20.260Z,5.68
2023-04-15T09:05:26.831Z,6.47
2023-04-15T09:10:29.885Z,9.32
2023-04-15T09:15:39.299Z,6.05
2023-04-15T09:20:43.788Z,5.28
2023-04-15T09:25:49.464Z,6.10
2023-04-15T09:30:57.696Z,7.80
2023-04-15T09:36:06.914Z,8.23
2023-04-15T09:41:20.644Z,6.45
2023-04-15T09:52:04.124Z,6.63
2023-04-15T09:57:10.189Z,3.92
2023-04-15T10:02:15.348Z,6.43
2023-04-15T10:07:23.688Z,8.20
2023-04-15T10:12:45.032Z,4.80
2023-04-15T10:17:51.876Z,5.95
2023-04-15T10:22:57.000Z,4.75
2023-04-15T10:28:02.266Z,3.17
2023-04-15T10:33:06.967Z,7.20
2023-04-15T10:38:36.828Z,4.93
2023-04-15T10:43:39.691Z,4.47
2023-04-15T10:48:50.769Z,4.43
2023-04-15T10:54:02.161Z,3.97
2023-04-15T10:59:07.511Z,6.75
2023-04-15T11:04:46.801Z,5.47
2023-04-15T11:09:55.175Z,4.78
2023-04-15T11:14:58.696Z,8.02
2023-04-15T11:20:02.129Z,3.85
2023-04-15T11:25:07.284Z,2.97
2023-04-15T11:30:21.064Z,5.90
2023-04-15T11:35:25.185Z,3.40
2023-04-15T11:40:33.452Z,2.75
2023-04-15T11:45:37.961Z,4.40
2023-04-15T11:50:41.865Z,3.75
2023-04-15T11:55:47.618Z,2.80
2023-04-15T12:00:52.537Z,3.85
2023-04-15T12:06:07.232Z,3.30
2023-04-15T12:11:15.464Z,2.35
2023-04-15T12:16:19.643Z,2.90
2023-04-15T12:21:22.766Z,2.85
2023-04-15T12:26:31.378Z,4.00
2023-04-15T12:31:35.624Z,3.22
2023-04-15T12:36:39.723Z,2.58
2023-04-15T12:41:44.373Z,2.78
2023-04-15T12:46:47.872Z,2.40
2023-04-15T12:51:55.402Z,2.95
2023-04-15T12:57:00.919Z,2.00
2023-04-15T13:02:05.157Z,4.10
2023-04-15T13:07:08.104Z,2.50
2023-04-15T13:12:13.900Z,2.90
2023-04-15T13:17:18.987Z,4.78
2023-04-15T13:22:22.709Z,1.90
2023-04-15T13:27:29.091Z,3.78
2023-04-15T13:32:32.122Z,2.17
2023-04-15T13:37:34.816Z,3.55
2023-04-15T13:42:59.949Z,3.23
2023-04-15T13:48:02.718Z,3.58
2023-04-15T13:53:05.761Z,9.52
2023-04-15T13:58:12.427Z,2.28
2023-04-15T14:03:15.245Z,11.02
2023-04-15T14:08:18.043Z,4.53
2023-04-15T14:13:23.581Z,5.13
2023-04-15T14:18:28.624Z,4.57
2023-04-15T14:23:52.000Z,8.10
2023-04-15T14:28:56.844Z,5.20
2023-04-15T14:34:25.764Z,3.33
2023-04-15T14:39:28.641Z,4.45
2023-04-15T14:44:33.030Z,3.42
2023-04-15T14:49:36.736Z,2.40
2023-04-15T14:54:39.540Z,5.70
2023-04-15T14:59:43.601Z,5.43
2023-04-15T15:04:46.329Z,8.57
2023-04-15T15:09:49.004Z,5.53
2023-04-15T15:14:53.283Z,2.83
2023-04-15T15:19:57.897Z,4.60
2023-04-15T15:25:02.205Z,4.72
2023-04-15T15:30:09.704Z,2.42
2023-04-15T15:35:12.507Z,4.63
2023-04-15T15:40:16.141Z,4.50
2023-04-15T15:45:24.444Z,2.78
2023-04-15T15:50:40.652Z,3.80
2023-04-15T15:55:43.781Z,11.60
2023-04-15T16:00:48.224Z,13.52
2023-04-15T16:05:52.170Z,6.68
2023-04-15T16:10:56.459Z,5.85
2023-04-15T16:16:02.506Z,7.00
2023-04-15T16:21:05.637Z,5.18
2023-04-15T16:26:08.455Z,4.22
2023-04-15T16:31:13.520Z,7.32
2023-04-15T16:36:16.268Z,10.00
2023-04-15T16:41:19.106Z,4.17
2023-04-15T16:46:24.334Z,6.37
2023-04-15T16:51:29.184Z,9.48
2023-04-15T16:56:32.001Z,7.47
2023-04-15T17:01:36.395Z,6.23
2023-04-15T17:06:40.301Z,6.25
2023-04-15T17:11:46.772Z,4.57
2023-04-15T17:16:50.812Z,4.78
2023-04-15T17:21:54.945Z,10.18
2023-04-15T17:26:58.420Z,6.10
2023-04-15T17:32:23.576Z,8.02
2023-04-15T17:37:26.766Z,7.43
2023-04-15T17:42:30.635Z,8.88
2023-04-15T17:47:34.770Z,10.43
2023-04-15T17:52:38.923Z,7.40
2023-04-15T17:57:43.967Z,15.45
2023-04-15T18:02:50.207Z,14.65
2023-04-15T18:07:56.344Z,9.23
2023-04-15T18:13:02.073Z,15.07
2023-04-15T18:18:07.662Z,19.58
2023-04-15T18:23:10.540Z,9.23
2023-04-15T18:28:14.185Z,19.40
2023-04-15T18:33:19.258Z,11.50
2023-04-15T18:38:21.993Z,11.18
2023-04-15T18:43:24.618Z,15.40
2023-04-15T18:48:30.450Z,10.03
2023-04-15T18:53:33.190Z,12.80
2023-04-15T18:59:26.973Z,8.93
2023-04-15T19:04:04.313Z,9.05
2023-04-15T19:09:08.877Z,9.73
2023-04-15T19:14:11.918Z,11.52
2023-04-15T19:19:18.275Z,12.50
2023-04-15T19:24:21.364Z,10.43
2023-04-15T19:29:25.343Z,14.02
2023-04-15T19:34:32.596Z,11.48
2023-04-15T19:39:35.935Z,10.85
2023-04-15T19:44:42.709Z,12.00
2023-04-15T19:49:52.217Z,9.38
2023-04-15T19:54:56.844Z,9.82
2023-04-15T19:59:59.760Z,13.45
2023-04-15T20:05:09.710Z,9.32
2023-04-15T20:10:14.660Z,17.02
2023-04-15T20:15:38.054Z,10.73
2023-04-15T20:20:42.345Z,12.73
2023-04-15T20:25:45.338Z,16.05
2023-04-15T20:30:50.159Z,13.13
2023-04-15T20:35:54.631Z,12.80
2023-04-15T20:41:16.768Z,16.20
2023-04-15T20:46:21.573Z,9.30
2023-04-15T20:51:27.783Z,10.23
2023-04-15T20:56:30.940Z,9.38
2023-04-15T21:01:33.691Z,17.02
2023-04-15T21:06:37.954Z,14.67
2023-04-15T21:11:57.388Z,16.30
2023-04-15T21:17:08.516Z,14.45
2023-04-15T21:22:16.606Z,15.18
2023-04-15T21:27:21.294Z,16.77
2023-04-15T21:32:26.180Z,16.90
2023-04-15T21:37:30.707Z,15.82
2023-04-15T21:42:34.886Z,16.92
2023-04-15T21:48:04.817Z,24.80
2023-04-15T21:53:02.905Z,14.10
2023-04-15T21:58:05.593Z,15.70
2023-04-15T22:03:09.734Z,19.87
2023-04-15T22:08:14.029Z,17.38
2023-04-15T22:13:17.825Z,18.33
2023-04-15T22:18:20.539Z,24.63
2023-04-15T22:23:24.807Z,25.13
2023-04-15T22:28:27.538Z,23.70
2023-04-15T22:33:30.416Z,20.07
2023-04-15T22:38:34.498Z,19.60
2023-04-15T22:43:38.514Z,23.80
2023-04-15T22:48:42.866Z,23.90
2023-04-15T22:53:46.877Z,27.27
2023-04-15T22:58:50.701Z,25.40
2023-04-15T23:03:57.012Z,28.73
2023-04-15T23:14:12.224Z,29.30
2023-04-15T23:19:15.177Z,26.20
2023-04-15T23:24:20.807Z,32.80
2023-04-15T23:29:24.725Z,36.13
2023-04-15T23:34:49.535Z,31.48
2023-04-15T23:39:55.624Z,37.25
2023-04-15T23:44:58.299Z,36.65
2023-04-15T23:50:01.243Z,39.67
2023-04-15T23:55:07.887Z,39.38
